createdAt,value
2023-05-09T00:00:13.783Z,21.83
2023-05-09T00:03:21.069Z,20.98
2023-05-09T00:06:27.658Z,22.02
2023-05-09T00:09:38.136Z,21.45
2023-05-09T00:12:44.854Z,22.10
2023-05-09T00:15:50.378Z,19.45
2023-05-09T00:18:56.079Z,20.20
2023-05-09T00:22:00.873Z,23.55
2023-05-09T00:25:07.569Z,19.85
2023-05-09T00:28:12.417Z,21.55
2023-05-09T00:31:17.045Z,20.42
2023-05-09T00:34:21.949Z,22.10
2023-05-09T00:37:26.357Z,23.30
2023-05-09T00:40:31.530Z,21.40
2023-05-09T00:43:36.185Z,20.67
2023-05-09T00:46:40.865Z,20.13
2023-05-09T00:49:45.212Z,22.80
2023-05-09T00:52:51.495Z,22.70
2023-05-09T00:55:58.077Z,20.42
2023-05-09T00:59:03.379Z,19.90
2023-05-09T01:02:07.849Z,18.65
2023-05-09T01:05:12.851Z,18.75
2023-05-09T01:08:45.260Z,20.55
2023-05-09T01:12:13.710Z,21.65
2023-05-09T01:15:41.485Z,18.08
2023-05-09T01:18:56.477Z,18.63
2023-05-09T01:22:05.927Z,17.27
2023-05-09T01:25:41.337Z,17.52
2023-05-09T01:29:15.572Z,18.33
2023-05-09T01:32:27.510Z,18.35
2023-05-09T01:35:36.221Z,17.80
2023-05-09T01:38:44.101Z,20.17
2023-05-09T01:41:49.745Z,18.20
2023-05-09T01:44:54.811Z,22.48
2023-05-09T01:48:00.758Z,19.55
2023-05-09T01:51:06.486Z,19.52
2023-05-09T01:54:12.517Z,19.83
2023-05-09T01:57:19.929Z,17.67
2023-05-09T02:00:26.069Z,21.60
2023-05-09T02:03:34.248Z,18.80
2023-05-09T02:06:40.372Z,18.92
2023-05-09T02:09:46.273Z,22.17
2023-05-09T02:12:50.722Z,22.08
2023-05-09T02:15:56.623Z,19.38
2023-05-09T02:19:01.344Z,20.75
2023-05-09T02:22:05.920Z,20.70
2023-05-09T02:25:15.261Z,19.35
2023-05-09T02:28:22.881Z,22.27
2023-05-09T02:31:28.467Z,21.20
2023-05-09T02:34:33.421Z,20.77
2023-05-09T02:37:40.049Z,22.88
2023-05-09T02:40:47.199Z,21.73
2023-05-09T02:43:51.411Z,22.73
2023-05-09T02:46:55.950Z,21.83
2023-05-09T02:50:00.407Z,17.98
2023-05-09T02:53:06.207Z,19.35
2023-05-09T02:56:11.001Z,17.80
2023-05-09T02:59:17.847Z,16.25
2023-05-09T03:02:24.171Z,20.05
2023-05-09T03:05:29.437Z,19.48
2023-05-09T03:08:34.344Z,19.95
2023-05-09T03:11:39.357Z,19.08
2023-05-09T03:14:44.371Z,19.67
2023-05-09T03:17:49.428Z,21.25
2023-05-09T03:20:54.332Z,23.20
2023-05-09T03:23:59.445Z,22.20
2023-05-09T03:27:04.109Z,23.45
2023-05-09T03:30:09.329Z,23.25
2023-05-09T03:33:14.126Z,19.92
2023-05-09T03:36:18.752Z,24.38
2023-05-09T03:39:23.609Z,25.10
2023-05-09T03:42:32.589Z,20.30
2023-05-09T03:45:39.779Z,21.90
2023-05-09T03:48:47.033Z,20.63
2023-05-09T03:51:52.238Z,20.67
2023-05-09T03:54:56.820Z,25.27
2023-05-09T03:58:01.373Z,21.80
2023-05-09T04:01:07.722Z,24.50
2023-05-09T04:04:12.747Z,22.15
2023-05-09T04:07:17.956Z,25.15
2023-05-09T04:10:25.489Z,25.15
2023-05-09T04:13:32.980Z,23.42
2023-05-09T04:16:40.674Z,20.98
2023-05-09T04:19:45.425Z,23.17
2023-05-09T04:22:50.536Z,20.05
2023-05-09T04:25:57.380Z,20.92
2023-05-09T04:29:02.769Z,21.02
2023-05-09T04:32:07.551Z,20.40
2023-05-09T04:35:14.097Z,21.60
2023-05-09T04:38:22.729Z,21.08
2023-05-09T04:41:27.768Z,21.05
2023-05-09T04:44:33.293Z,23.73
2023-05-09T04:47:38.710Z,23.92
2023-05-09T04:50:43.863Z,21.92
2023-05-09T04:53:48.388Z,24.33
2023-05-09T04:57:03.222Z,21.05
2023-05-09T05:00:13.635Z,24.00
2023-05-09T05:03:19.193Z,24.63
2023-05-09T05:06:24.240Z,23.00
2023-05-09T05:09:28.750Z,23.58
2023-05-09T05:12:33.456Z,22.17
2023-05-09T05:15:38.731Z,23.90
2023-05-09T05:18:44.604Z,25.42
2023-05-09T05:21:49.771Z,21.02
2023-05-09T05:24:54.612Z,23.52
2023-05-09T05:28:01.352Z,18.75
2023-05-09T05:31:06.104Z,20.38
2023-05-09T05:34:10.751Z,20.95
2023-05-09T05:37:15.926Z,22.30
2023-05-09T05:40:21.252Z,22.40
2023-05-09T05:43:27.527Z,23.02
2023-05-09T05:46:32.007Z,22.70
2023-05-09T05:49:37.075Z,23.70
2023-05-09T05:52:42.131Z,21.60
2023-05-09T05:55:50.933Z,21.15
2023-05-09T05:58:55.718Z,20.48
2023-05-09T06:02:00.746Z,27.88
2023-05-09T06:05:09.959Z,22.80
2023-05-09T06:08:14.623Z,22.50
2023-05-09T06:11:19.788Z,22.73
2023-05-09T06:14:24.742Z,18.90
2023-05-09T06:17:29.703Z,19.38
2023-05-09T06:20:35.894Z,17.95
2023-05-09T06:23:50.505Z,20.42
2023-05-09T06:27:05.327Z,19.60
2023-05-09T06:33:17.715Z,17.20
2023-05-09T06:36:21.942Z,17.58
2023-05-09T06:39:26.424Z,14.55
2023-05-09T06:42:32.668Z,21.95
2023-05-09T06:45:37.336Z,18.83
2023-05-09T06:48:42.509Z,15.35
2023-05-09T06:51:47.298Z,14.38
2023-05-09T06:54:52.170Z,14.23
2023-05-09T06:57:57.142Z,13.88
2023-05-09T07:01:02.079Z,16.05
2023-05-09T07:04:07.110Z,12.98
2023-05-09T07:07:11.914Z,13.02
2023-05-09T07:10:17.122Z,12.98
2023-05-09T07:13:21.781Z,14.88
2023-05-09T07:16:28.631Z,15.27
2023-05-09T07:19:32.991Z,14.98
2023-05-09T07:22:37.857Z,11.75
2023-05-09T07:25:43.861Z,15.07
2023-05-09T07:28:48.726Z,10.63
2023-05-09T07:31:53.370Z,11.82
2023-05-09T07:34:58.422Z,11.63
2023-05-09T07:38:03.065Z,14.02
2023-05-09T07:41:07.758Z,10.88
2023-05-09T07:44:12.657Z,10.45
2023-05-09T07:47:17.204Z,9.70
2023-05-09T07:50:23.218Z,10.95
2023-05-09T07:53:27.487Z,13.93
2023-05-09T07:56:32.094Z,11.75
2023-05-09T07:59:36.921Z,14.57
2023-05-09T08:02:41.665Z,10.02
2023-05-09T08:05:46.188Z,12.30
2023-05-09T08:08:50.607Z,13.32
2023-05-09T08:11:55.214Z,12.35
2023-05-09T08:15:00.273Z,15.68
2023-05-09T08:18:06.393Z,10.73
2023-05-09T08:21:11.231Z,11.55
2023-05-09T08:24:15.853Z,11.10
2023-05-09T08:27:20.041Z,14.23
2023-05-09T08:30:24.823Z,11.57
2023-05-09T08:33:29.329Z,11.35
2023-05-09T08:36:34.333Z,10.65
2023-05-09T08:39:38.654Z,11.13
2023-05-09T08:42:45.867Z,12.95
2023-05-09T08:46:00.445Z,9.13
2023-05-09T08:49:09.515Z,12.73
2023-05-09T08:52:14.902Z,9.70
2023-05-09T08:55:19.812Z,9.95
2023-05-09T08:58:24.763Z,10.82
2023-05-09T09:01:30.100Z,9.98
2023-05-09T09:04:34.988Z,14.25
2023-05-09T09:07:41.557Z,9.32
2023-05-09T09:10:49.820Z,8.98
2023-05-09T09:13:56.387Z,9.18
2023-05-09T09:17:01.416Z,9.23
2023-05-09T09:20:13.125Z,10.05
2023-05-09T09:23:21.054Z,11.30
2023-05-09T09:26:29.525Z,11.05
2023-05-09T09:29:34.584Z,8.68
2023-05-09T09:32:40.360Z,9.93
2023-05-09T09:35:45.486Z,8.40
2023-05-09T09:38:50.393Z,9.00
2023-05-09T09:41:54.679Z,10.45
2023-05-09T09:45:03.485Z,9.57
2023-05-09T09:48:08.246Z,10.75
2023-05-09T09:51:13.057Z,9.88
2023-05-09T09:54:18.262Z,9.23
2023-05-09T09:57:45.711Z,8.35
2023-05-09T10:01:09.056Z,7.80
2023-05-09T10:04:16.952Z,8.45
2023-05-09T10:07:24.121Z,6.78
2023-05-09T10:10:32.000Z,7.18
2023-05-09T10:13:38.718Z,8.38
2023-05-09T10:16:44.744Z,8.80
2023-05-09T10:19:50.993Z,7.80
2023-05-09T10:23:01.139Z,7.43
2023-05-09T10:26:31.863Z,5.47
2023-05-09T10:29:59.407Z,5.72
2023-05-09T10:33:09.227Z,8.63
2023-05-09T10:36:18.095Z,6.68
2023-05-09T10:39:23.173Z,5.15
2023-05-09T10:42:29.007Z,5.60
2023-05-09T10:45:34.828Z,5.47
2023-05-09T10:48:41.583Z,5.35
2023-05-09T10:51:46.505Z,5.82
2023-05-09T10:55:03.574Z,6.68
2023-05-09T10:58:28.785Z,3.90
2023-05-09T11:01:39.665Z,5.30
2023-05-09T11:04:45.644Z,5.72
2023-05-09T11:08:21.105Z,5.60
2023-05-09T11:11:25.743Z,5.25
2023-05-09T11:14:45.752Z,4.75
2023-05-09T11:18:10.918Z,4.53
2023-05-09T11:21:15.847Z,4.18
2023-05-09T11:24:23.334Z,4.13
2023-05-09T11:27:29.603Z,4.50
2023-05-09T11:30:43.482Z,4.95
2023-05-09T11:33:56.341Z,4.93
2023-05-09T11:37:11.199Z,4.43
2023-05-09T11:40:21.327Z,6.50
2023-05-09T11:43:25.776Z,5.38
2023-05-09T11:46:31.209Z,5.03
2023-05-09T11:49:37.186Z,4.95
2023-05-09T11:52:42.246Z,5.70
2023-05-09T11:55:47.281Z,5.40
2023-05-09T11:58:52.473Z,3.92
2023-05-09T12:01:57.080Z,5.43
2023-05-09T12:05:16.746Z,4.25
2023-05-09T12:08:24.367Z,4.28
2023-05-09T12:11:32.460Z,3.65
2023-05-09T12:14:37.634Z,2.72
2023-05-09T12:17:44.641Z,4.28
2023-05-09T12:20:51.051Z,2.53
2023-05-09T12:23:57.640Z,2.40
2023-05-09T12:27:02.987Z,1.80
2023-05-09T12:30:10.830Z,2.50
2023-05-09T12:33:16.627Z,2.47
2023-05-09T12:36:21.461Z,2.65
2023-05-09T12:39:26.755Z,3.00
2023-05-09T12:42:32.995Z,2.42
2023-05-09T12:45:39.447Z,1.60
2023-05-09T12:48:44.584Z,2.03
2023-05-09T12:51:50.635Z,2.58
2023-05-09T12:54:55.102Z,2.30
2023-05-09T12:58:03.914Z,3.08
2023-05-09T13:01:09.591Z,2.30
2023-05-09T13:04:14.381Z,2.95
2023-05-09T13:07:19.060Z,2.58
2023-05-09T13:10:27.525Z,3.75
2023-05-09T13:13:32.754Z,3.63
2023-05-09T13:16:37.810Z,2.88
2023-05-09T13:19:42.265Z,3.35
2023-05-09T13:22:47.493Z,2.67
2023-05-09T13:25:52.040Z,3.00
2023-05-09T13:28:57.113Z,3.10
2023-05-09T13:32:01.872Z,2.33
2023-05-09T13:35:08.061Z,1.95
2023-05-09T13:38:12.626Z,3.58
2023-05-09T13:41:21.004Z,1.92
2023-05-09T13:44:25.692Z,3.80
2023-05-09T13:47:30.555Z,2.40
2023-05-09T13:50:35.268Z,3.10
2023-05-09T13:53:40.533Z,3.13
2023-05-09T13:56:45.566Z,2.10
2023-05-09T13:59:49.785Z,2.00
2023-05-09T14:02:54.403Z,2.42
2023-05-09T14:05:59.898Z,3.03
2023-05-09T14:09:04.826Z,1.92
2023-05-09T14:12:09.587Z,1.85
2023-05-09T14:15:14.533Z,3.47
2023-05-09T14:18:20.914Z,5.03
2023-05-09T14:21:25.632Z,2.33
2023-05-09T14:24:30.967Z,3.60
2023-05-09T14:27:38.411Z,2.63
2023-05-09T14:30:43.694Z,2.53
2023-05-09T14:33:48.527Z,3.13
2023-05-09T14:36:53.407Z,1.98
2023-05-09T14:39:58.401Z,2.60
2023-05-09T14:43:03.060Z,6.80
2023-05-09T14:46:07.538Z,2.08
2023-05-09T14:49:12.248Z,2.47
2023-05-09T14:52:17.675Z,1.60
2023-05-09T14:55:24.691Z,2.67
2023-05-09T14:58:31.763Z,2.95
2023-05-09T15:01:37.173Z,1.90
2023-05-09T15:04:43.772Z,1.67
2023-05-09T15:07:48.052Z,3.10
2023-05-09T15:10:52.607Z,2.25
2023-05-09T15:13:57.631Z,3.13
2023-05-09T15:17:04.267Z,2.50
2023-05-09T15:20:18.427Z,3.00
2023-05-09T15:23:23.532Z,2.60
2023-05-09T15:26:28.444Z,2.03
2023-05-09T15:29:33.375Z,3.25
2023-05-09T15:32:39.785Z,3.58
2023-05-09T15:35:45.119Z,2.47
2023-05-09T15:38:49.903Z,2.45
2023-05-09T15:41:54.438Z,2.35
2023-05-09T15:44:59.315Z,3.05
2023-05-09T15:48:04.221Z,2.83
2023-05-09T15:51:09.582Z,4.05
2023-05-09T15:54:14.033Z,2.92
2023-05-09T15:57:18.385Z,2.35
2023-05-09T16:00:23.421Z,2.42
2023-05-09T16:03:28.194Z,3.58
2023-05-09T16:06:33.723Z,2.55
2023-05-09T16:09:38.406Z,3.20
2023-05-09T16:12:43.390Z,2.35
2023-05-09T16:15:50.029Z,2.72
2023-05-09T16:18:55.028Z,2.30
2023-05-09T16:21:59.680Z,2.90
2023-05-09T16:25:04.672Z,2.75
2023-05-09T16:28:09.452Z,3.33
2023-05-09T16:31:14.112Z,2.72
2023-05-09T16:34:18.380Z,3.33
2023-05-09T16:37:23.609Z,3.90
2023-05-09T16:40:28.492Z,2.72
2023-05-09T16:43:32.765Z,2.35
2023-05-09T16:46:37.902Z,2.63
2023-05-09T16:49:42.715Z,3.97
2023-05-09T16:52:48.086Z,3.05
2023-05-09T16:55:53.923Z,2.15
2023-05-09T16:58:58.634Z,3.50
2023-05-09T17:02:04.397Z,2.90
2023-05-09T17:05:09.231Z,2.75
2023-05-09T17:08:13.713Z,2.90
2023-05-09T17:11:18.580Z,4.82
2023-05-09T17:14:22.952Z,2.97
2023-05-09T17:17:27.317Z,3.15
2023-05-09T17:20:31.815Z,2.25
2023-05-09T17:23:36.613Z,2.60
2023-05-09T17:26:41.429Z,3.25
2023-05-09T17:29:46.091Z,2.42
2023-05-09T17:32:50.765Z,3.20
2023-05-09T17:35:55.628Z,3.00
2023-05-09T17:39:00.834Z,4.32
2023-05-09T17:42:06.893Z,2.03
2023-05-09T17:45:12.520Z,2.83
2023-05-09T17:48:17.199Z,2.38
2023-05-09T17:51:21.938Z,3.00
2023-05-09T17:54:26.755Z,2.58
2023-05-09T17:57:31.316Z,2.70
2023-05-09T18:00:36.588Z,2.45
2023-05-09T18:03:41.399Z,2.15
2023-05-09T18:06:46.030Z,3.47
2023-05-09T18:09:50.572Z,2.70
2023-05-09T18:12:55.204Z,2.72
2023-05-09T18:16:00.741Z,2.10
2023-05-09T18:19:05.747Z,2.00
2023-05-09T18:22:10.327Z,2.20
2023-05-09T18:25:14.771Z,2.78
2023-05-09T18:28:24.614Z,2.25
2023-05-09T18:31:31.167Z,2.10
2023-05-09T18:34:36.034Z,3.83
2023-05-09T18:37:40.694Z,2.95
2023-05-09T18:40:45.358Z,2.30
2023-05-09T18:43:50.040Z,2.10
2023-05-09T18:46:55.066Z,2.47
2023-05-09T18:50:02.367Z,2.42
2023-05-09T18:53:07.517Z,2.53
2023-05-09T18:56:12.187Z,3.50
2023-05-09T18:59:17.337Z,3.17
2023-05-09T19:02:23.562Z,2.80
2023-05-09T19:05:28.440Z,2.97
2023-05-09T19:08:33.362Z,3.08
2023-05-09T19:11:38.155Z,3.28
2023-05-09T19:14:43.384Z,2.70
2023-05-09T19:17:47.916Z,2.10
2023-05-09T19:20:52.500Z,3.35
2023-05-09T19:23:57.202Z,3.58
2023-05-09T19:27:02.009Z,3.63
2023-05-09T19:30:07.825Z,4.68
2023-05-09T19:33:12.348Z,3.45
2023-05-09T19:36:18.344Z,3.95
2023-05-09T19:39:22.812Z,3.72
2023-05-09T19:42:27.513Z,3.03
2023-05-09T19:45:32.038Z,3.40
2023-05-09T19:48:36.923Z,4.68
2023-05-09T19:51:42.245Z,3.08
2023-05-09T19:54:46.796Z,3.38
2023-05-09T19:57:51.084Z,3.40
2023-05-09T20:00:55.967Z,3.35
2023-05-09T20:04:00.901Z,3.40
2023-05-09T20:07:05.973Z,4.07
2023-05-09T20:10:12.765Z,5.00
2023-05-09T20:13:17.912Z,8.88
2023-05-09T20:16:22.398Z,7.28
2023-05-09T20:19:27.846Z,7.30
2023-05-09T20:22:32.596Z,5.28
2023-05-09T20:25:37.586Z,4.75
2023-05-09T20:28:42.300Z,4.40
2023-05-09T20:31:47.447Z,5.25
2023-05-09T20:34:51.885Z,4.80
2023-05-09T20:37:56.490Z,4.68
2023-05-09T20:41:01.132Z,4.22
2023-05-09T20:44:06.347Z,4.30
2023-05-09T20:47:10.964Z,4.53
2023-05-09T20:50:15.864Z,4.28
2023-05-09T20:53:20.764Z,4.80
2023-05-09T20:56:29.089Z,5.00
2023-05-09T20:59:33.926Z,5.40
2023-05-09T21:02:38.641Z,4.43
2023-05-09T21:05:43.627Z,5.57
2023-05-09T21:08:48.468Z,5.00
2023-05-09T21:11:53.189Z,5.10
2023-05-09T21:14:57.835Z,4.68
2023-05-09T21:18:02.602Z,5.40
2023-05-09T21:21:11.293Z,5.47
2023-05-09T21:24:15.980Z,5.60
2023-05-09T21:27:20.985Z,5.97
2023-05-09T21:30:25.791Z,6.63
2023-05-09T21:33:31.026Z,6.30
2023-05-09T21:36:38.378Z,5.82
2023-05-09T21:39:43.155Z,5.90
2023-05-09T21:42:48.279Z,5.88
2023-05-09T21:45:52.999Z,9.43
2023-05-09T21:48:57.581Z,8.15
2023-05-09T21:52:02.477Z,7.70
2023-05-09T21:55:07.631Z,7.55
2023-05-09T21:58:12.034Z,6.95
2023-05-09T22:01:18.473Z,5.93
2023-05-09T22:04:23.074Z,4.72
2023-05-09T22:07:27.682Z,4.32
2023-05-09T22:10:32.439Z,4.18
2023-05-09T22:13:36.976Z,5.57
2023-05-09T22:16:41.627Z,4.82
2023-05-09T22:19:46.216Z,5.07
2023-05-09T22:22:51.116Z,3.97
2023-05-09T22:25:55.734Z,4.55
2023-05-09T22:29:00.653Z,4.82
2023-05-09T22:32:08.384Z,4.55
2023-05-09T22:35:13.015Z,4.85
2023-05-09T22:38:17.704Z,3.95
2023-05-09T22:41:22.828Z,4.47
2023-05-09T22:44:27.680Z,3.83
2023-05-09T22:47:32.482Z,4.70
2023-05-09T22:50:37.095Z,4.45
2023-05-09T22:53:41.601Z,4.05
2023-05-09T22:56:47.401Z,3.75
2023-05-09T22:59:53.538Z,5.78
2023-05-09T23:03:00.314Z,4.45
2023-05-09T23:06:05.048Z,6.57
2023-05-09T23:09:10.670Z,4.05
2023-05-09T23:12:15.432Z,5.22
2023-05-09T23:15:19.957Z,4.25
2023-05-09T23:18:25.633Z,5.28
2023-05-09T23:21:30.007Z,4.68
2023-05-09T23:24:35.373Z,4.72
2023-05-09T23:27:40.751Z,5.10
2023-05-09T23:30:44.924Z,4.63
2023-05-09T23:33:49.633Z,5.53
2023-05-09T23:36:54.292Z,5.05
2023-05-09T23:39:58.731Z,6.13
2023-05-09T23:43:03.391Z,5.75
2023-05-09T23:46:08.140Z,6.70
2023-05-09T23:49:14.598Z,6.22
2023-05-09T23:52:19.088Z,6.60
2023-05-09T23:55:23.414Z,6.97
2023-05-09T23:58:28.218Z,6.78
